Time;durP1;ratioP1;P1;durP2;ratioP2;P2;SDS_P1;SDS_P2;PMS_P1;PMS_P2;Temp;Humidity;BMP_temperature;BMP_pressure;BME280_temperature;BME280_humidity;BME280_pressure;Samples;Min_cycle;Max_cycle;Signal;HPM_P1;HPM_P2
2023/08/16 00:01:16;;;;;;;4.00;2.67;;;;;;;12.89;56.10;101963.69;4994569;28;20264;-75
2023/08/16 00:03:43;;;;;;;5.85;1.48;;;;;;;12.94;56.03;101968.78;4977563;28;20048;-77
2023/08/16 00:06:13;;;;;;;3.78;1.98;;;;;;;12.86;56.11;101966.44;4964880;28;20235;-76
2023/08/16 00:08:41;;;;;;;7.75;2.40;;;;;;;12.89;55.96;101967.19;4975391;28;20698;-76
2023/08/16 00:11:07;;;;;;;3.65;1.73;;;;;;;12.90;55.85;101965.44;4975370;28;20571;-75
2023/08/16 00:13:33;;;;;;;3.85;2.63;;;;;;;12.85;55.98;101970.81;4977136;28;20050;-76
2023/08/16 00:16:00;;;;;;;3.30;2.45;;;;;;;12.84;56.16;101973.50;4965400;28;20036;-76
2023/08/16 00:18:25;;;;;;;5.35;1.73;;;;;;;12.82;56.02;101975.31;4959778;28;20456;-76
2023/08/16 00:20:51;;;;;;;6.88;2.03;;;;;;;12.81;56.03;101978.84;4981016;28;20038;-75
2023/08/16 00:23:16;;;;;;;3.83;2.33;;;;;;;12.67;56.11;101967.00;4976800;28;20061;-77
2023/08/16 00:25:42;;;;;;;4.28;2.28;;;;;;;12.58;56.26;101977.78;4992411;28;20042;-77
2023/08/16 00:28:07;;;;;;;5.03;2.45;;;;;;;12.69;56.01;101977.44;4980205;28;20042;-76
2023/08/16 00:30:33;;;;;;;7.63;2.35;;;;;;;12.62;56.29;101978.50;4981001;28;20025;-76
2023/08/16 00:33:02;;;;;;;5.25;2.20;;;;;;;12.63;56.11;101977.63;4983256;28;20424;-75
2023/08/16 00:35:27;;;;;;;4.97;1.77;;;;;;;12.58;56.34;101977.78;4981156;28;20492;-75
2023/08/16 00:37:52;;;;;;;5.13;2.30;;;;;;;12.53;56.23;101976.19;4980010;28;20048;-77
2023/08/16 00:40:20;;;;;;;3.47;2.25;;;;;;;12.52;56.09;101982.34;4979244;28;20508;-76
2023/08/16 00:42:45;;;;;;;5.03;2.05;;;;;;;12.52;56.34;101992.84;4961029;28;20034;-76
2023/08/16 00:45:11;;;;;;;4.72;2.88;;;;;;;12.54;56.32;101993.66;4978366;28;20040;-76
2023/08/16 00:47:36;;;;;;;5.88;3.03;;;;;;;12.60;55.98;101991.69;4980434;28;20034;-76
2023/08/16 00:50:03;;;;;;;5.15;1.98;;;;;;;12.58;55.65;101990.88;4986257;28;20091;-78
2023/08/16 00:52:29;;;;;;;3.65;2.30;;;;;;;12.43;56.11;101994.81;4995588;28;20045;-77
2023/08/16 00:54:55;;;;;;;2.72;2.17;;;;;;;12.42;56.24;101997.47;4976657;28;20432;-76
2023/08/16 00:57:21;;;;;;;2.78;2.53;;;;;;;12.36;56.23;101997.69;4981426;28;20092;-76
2023/08/16 00:59:47;;;;;;;4.40;2.08;;;;;;;12.25;56.32;102011.94;4980887;28;20124;-75
2023/08/16 01:02:14;;;;;;;3.75;2.42;;;;;;;12.33;56.25;102006.47;4981501;28;20030;-76
2023/08/16 01:04:40;;;;;;;5.07;2.47;;;;;;;12.33;56.00;102005.63;4981331;28;20056;-77
2023/08/16 01:07:06;;;;;;;2.63;2.00;;;;;;;12.34;56.23;102002.13;4964236;28;20132;-78
2023/08/16 01:09:31;;;;;;;3.05;2.22;;;;;;;12.35;55.98;101996.81;4980850;28;20049;-77
2023/08/16 01:12:12;;;;;;;2.88;1.70;;;;;;;12.35;56.03;101994.19;4983265;28;20029;-77
2023/08/16 01:14:55;;;;;;;3.03;2.10;;;;;;;12.25;56.29;102001.47;4978615;28;20041;-76
2023/08/16 01:17:23;;;;;;;3.70;2.15;;;;;;;12.23;56.07;101995.41;4976029;28;20211;-75
2023/08/16 01:19:53;;;;;;;4.78;1.83;;;;;;;12.22;56.35;102000.69;4997490;28;20126;-75
2023/08/16 01:22:56;;;;;;;2.40;1.75;;;;;;;12.11;56.40;102003.66;4982833;28;20104;-75
2023/08/16 01:25:50;;;;;;;6.00;2.70;;;;;;;12.09;56.57;102005.44;4966738;28;20052;-74
2023/08/16 01:28:18;;;;;;;3.25;1.95;;;;;;;12.13;56.31;101990.47;4981148;28;20050;-78
2023/08/16 01:30:45;;;;;;;4.90;1.88;;;;;;;12.28;56.34;101996.13;4982154;28;20030;-75
2023/08/16 01:33:13;;;;;;;4.10;2.20;;;;;;;12.22;56.20;101996.31;4963720;28;20034;-77
2023/08/16 01:35:40;;;;;;;1.70;1.30;;;;;;;12.24;56.17;101999.72;4983176;28;20034;-77
2023/08/16 01:38:07;;;;;;;3.90;2.28;;;;;;;12.27;56.04;101988.31;4981686;28;20121;-77
2023/08/16 01:40:52;;;;;;;6.20;1.92;;;;;;;12.23;56.10;101987.53;4965212;28;20618;-77
2023/08/16 01:43:19;;;;;;;2.17;1.58;;;;;;;12.23;56.02;101992.78;4977071;28;20041;-77
2023/08/16 01:45:46;;;;;;;9.23;1.90;;;;;;;12.14;55.95;101993.06;4994567;28;20041;-78
2023/08/16 01:48:13;;;;;;;4.28;1.25;;;;;;;12.14;55.92;101998.31;4983097;28;20056;-76
2023/08/16 01:50:38;;;;;;;5.13;2.10;;;;;;;12.23;55.91;102005.91;4995426;28;20104;-76
2023/08/16 01:53:04;;;;;;;5.03;2.00;;;;;;;12.23;56.03;102008.50;4991357;28;20050;-76
2023/08/16 01:55:30;;;;;;;4.07;2.22;;;;;;;12.22;56.27;102004.19;4995731;28;20034;-75
2023/08/16 01:57:55;;;;;;;4.38;2.28;;;;;;;12.32;56.24;102006.53;4976869;28;20756;-76
2023/08/16 02:00:21;;;;;;;4.80;1.95;;;;;;;12.34;56.30;102009.97;4981381;28;20026;-77
2023/08/16 02:02:46;;;;;;;5.07;2.55;;;;;;;12.36;56.16;102014.28;4993611;28;20485;-75
2023/08/16 02:05:11;;;;;;;4.95;2.58;;;;;;;12.37;56.42;102002.88;4979904;28;20056;-77
2023/08/16 02:07:37;;;;;;;6.15;2.92;;;;;;;12.31;56.55;102015.28;4976509;28;20033;-75
2023/08/16 02:10:03;;;;;;;3.60;1.88;;;;;;;12.32;56.21;102009.16;4978734;28;21178;-75
2023/08/16 02:12:28;;;;;;;2.88;2.20;;;;;;;12.26;56.08;102008.41;4996244;28;20416;-75
2023/08/16 02:14:54;;;;;;;2.85;1.80;;;;;;;12.17;56.37;102002.59;4981392;28;20030;-76
2023/08/16 02:17:19;;;;;;;2.40;1.48;;;;;;;12.10;56.51;102004.53;4977027;28;20112;-76
2023/08/16 02:19:45;;;;;;;4.15;1.90;;;;;;;12.07;56.33;102002.00;4980415;28;20906;-77
2023/08/16 02:22:10;;;;;;;2.75;1.95;;;;;;;12.10;56.51;101996.66;4979372;28;20308;-77
2023/08/16 02:24:36;;;;;;;3.95;2.15;;;;;;;12.12;56.49;102005.34;4980082;28;20045;-77
2023/08/16 02:27:04;;;;;;;6.22;2.42;;;;;;;12.11;56.72;102003.66;4965012;28;20030;-78
2023/08/16 02:29:29;;;;;;;6.82;2.83;;;;;;;12.16;56.75;102000.88;4981031;28;20084;-77
2023/08/16 02:31:55;;;;;;;6.10;3.63;;;;;;;12.12;57.26;101994.88;4992816;28;20049;-76
2023/08/16 02:34:21;;;;;;;7.68;3.50;;;;;;;12.14;57.49;101992.22;4978586;28;20046;-76
2023/08/16 02:36:46;;;;;;;6.38;3.22;;;;;;;12.24;57.43;101997.13;4983543;28;20065;-77
2023/08/16 02:39:11;;;;;;;4.63;4.07;;;;;;;12.22;58.08;101998.06;4979595;28;20856;-78
2023/08/16 02:41:37;;;;;;;4.32;3.65;;;;;;;12.24;57.92;101999.72;4978947;28;20029;-78
2023/08/16 02:44:03;;;;;;;9.55;4.97;;;;;;;12.31;57.86;101997.78;4980706;28;20072;-76
2023/08/16 02:46:28;;;;;;;10.30;5.50;;;;;;;12.31;57.86;101999.56;4980043;28;20673;-78
2023/08/16 02:48:56;;;;;;;12.68;4.97;;;;;;;12.31;57.57;101995.16;4983567;28;20046;-77
2023/08/16 02:51:24;;;;;;;8.82;4.45;;;;;;;12.31;57.75;102005.66;4994557;28;20519;-77
2023/08/16 02:53:49;;;;;;;6.85;4.18;;;;;;;12.34;57.48;102002.13;4975700;28;20041;-78
2023/08/16 02:56:15;;;;;;;7.60;4.30;;;;;;;12.36;57.15;102008.16;4963573;28;20325;-77
2023/08/16 02:58:40;;;;;;;5.20;3.67;;;;;;;12.29;57.32;102010.97;4982169;28;20065;-77
2023/08/16 03:01:07;;;;;;;3.78;3.33;;;;;;;12.24;57.36;102004.97;4983697;28;20048;-76
2023/08/16 03:03:33;;;;;;;6.40;4.03;;;;;;;12.22;57.44;102008.56;4994204;28;20046;-78
2023/08/16 03:05:58;;;;;;;4.97;4.22;;;;;;;12.23;57.37;102007.66;4978148;28;20036;-78
2023/08/16 03:08:24;;;;;;;6.10;3.28;;;;;;;12.23;57.44;102003.28;4979517;28;20052;-76
2023/08/16 03:10:49;;;;;;;7.03;4.53;;;;;;;12.16;57.30;102011.38;4979543;28;20117;-76
2023/08/16 03:13:15;;;;;;;6.32;4.18;;;;;;;12.18;57.32;102017.41;4978647;28;20089;-76
2023/08/16 03:15:41;;;;;;;4.50;3.40;;;;;;;12.16;57.58;102012.22;4994398;28;20032;-77
2023/08/16 03:18:06;;;;;;;7.50;3.72;;;;;;;12.07;57.55;102017.72;4977211;28;20539;-76
2023/08/16 03:20:32;;;;;;;6.30;3.80;;;;;;;11.95;57.48;102018.91;4976918;28;20761;-76
2023/08/16 03:22:58;;;;;;;4.45;3.53;;;;;;;11.96;57.52;102022.41;4960814;28;20099;-77
2023/08/16 03:25:23;;;;;;;18.25;5.82;;;;;;;11.84;58.13;102024.47;4977226;28;20487;-78
2023/08/16 03:27:49;;;;;;;8.48;4.90;;;;;;;11.87;58.03;102027.00;4961380;28;20062;-76
2023/08/16 03:30:15;;;;;;;5.65;3.90;;;;;;;11.95;57.99;102026.75;4975783;28;20084;-76
2023/08/16 03:32:42;;;;;;;6.20;4.30;;;;;;;11.86;57.69;102030.50;4958433;28;20035;-77
2023/08/16 03:35:08;;;;;;;4.90;3.70;;;;;;;11.78;57.56;102036.88;4977524;28;20049;-76
2023/08/16 03:37:33;;;;;;;4.05;3.63;;;;;;;11.62;57.77;102023.25;4982191;28;20035;-76
2023/08/16 03:39:59;;;;;;;7.15;4.25;;;;;;;11.44;58.87;102033.31;4979936;28;20052;-76
2023/08/16 03:42:25;;;;;;;5.55;4.03;;;;;;;11.54;58.99;102048.81;4976657;28;20054;-75
2023/08/16 03:44:53;;;;;;;5.65;3.70;;;;;;;11.70;58.24;102039.63;4985570;28;20064;-76
2023/08/16 03:47:19;;;;;;;4.82;3.65;;;;;;;11.70;58.24;102042.25;4959826;28;20103;-75
2023/08/16 03:49:44;;;;;;;6.38;3.80;;;;;;;11.66;58.31;102040.63;4979138;28;20046;-78
2023/08/16 03:52:10;;;;;;;4.93;3.85;;;;;;;11.55;58.44;102040.88;4980150;28;20092;-77
2023/08/16 03:54:35;;;;;;;6.10;4.15;;;;;;;11.53;58.93;102040.09;4979346;28;20305;-75
2023/08/16 03:57:01;;;;;;;5.53;3.38;;;;;;;11.55;58.66;102040.88;4980082;28;20038;-76
2023/08/16 03:59:26;;;;;;;7.63;2.45;;;;;;;11.55;58.54;102040.03;4974658;28;20101;-76
2023/08/16 04:01:52;;;;;;;3.03;2.70;;;;;;;11.45;58.45;102042.88;4980143;28;20041;-77
2023/08/16 04:04:17;;;;;;;3.17;2.88;;;;;;;11.36;58.47;102044.88;4976881;28;20042;-77
2023/08/16 04:06:43;;;;;;;3.50;2.58;;;;;;;11.31;58.40;102058.09;4980587;28;20030;-78
2023/08/16 04:09:08;;;;;;;3.28;2.90;;;;;;;11.25;58.56;102058.22;4985940;28;20046;-77
2023/08/16 04:11:36;;;;;;;3.40;2.72;;;;;;;11.20;58.36;102049.63;4972976;28;20484;-77
2023/08/16 04:14:02;;;;;;;5.57;3.13;;;;;;;11.15;58.67;102057.59;4968420;28;20042;-78
2023/08/16 04:16:28;;;;;;;4.20;2.67;;;;;;;11.09;58.82;102051.66;4982523;28;20140;-77
2023/08/16 04:18:54;;;;;;;6.75;2.70;;;;;;;11.15;58.43;102059.31;4984014;28;20492;-76
2023/08/16 04:21:21;;;;;;;5.88;2.80;;;;;;;11.08;58.33;102057.75;4979236;28;20042;-76
2023/08/16 04:23:46;;;;;;;3.03;2.72;;;;;;;11.14;58.48;102061.09;4997935;28;20034;-78
2023/08/16 04:26:12;;;;;;;4.53;2.55;;;;;;;11.16;58.76;102067.16;4998332;28;20037;-75
2023/08/16 04:28:38;;;;;;;3.40;2.47;;;;;;;11.28;58.44;102068.59;4968587;28;20124;-75
2023/08/16 04:31:04;;;;;;;2.67;2.30;;;;;;;11.48;58.16;102075.13;4979003;28;20037;-75
2023/08/16 04:33:30;;;;;;;2.30;1.65;;;;;;;11.59;58.24;102079.19;4979333;28;20058;-76
2023/08/16 04:35:56;;;;;;;7.57;1.85;;;;;;;11.60;58.03;102077.47;4980981;28;20022;-75
2023/08/16 04:38:22;;;;;;;4.50;2.45;;;;;;;11.52;58.16;102082.00;4964119;28;20074;-75
2023/08/16 04:40:52;;;;;;;5.97;2.13;;;;;;;11.58;57.76;102082.72;4980489;28;20176;-75
2023/08/16 04:43:19;;;;;;;7.38;3.00;;;;;;;11.61;57.65;102092.25;4978061;28;20037;-74
2023/08/16 04:45:45;;;;;;;2.30;2.03;;;;;;;11.64;58.02;102089.53;4985227;28;20052;-75
2023/08/16 04:48:13;;;;;;;2.50;2.17;;;;;;;11.70;57.65;102093.78;4984013;28;20563;-75
2023/08/16 04:50:38;;;;;;;2.83;2.40;;;;;;;11.76;57.56;102099.72;4984114;28;20036;-76
2023/08/16 04:53:04;;;;;;;2.67;2.20;;;;;;;11.85;57.57;102099.53;4982568;28;20050;-76
2023/08/16 04:55:29;;;;;;;2.67;2.40;;;;;;;11.91;57.12;102101.13;4964731;28;20129;-75
2023/08/16 04:57:55;;;;;;;2.17;1.95;;;;;;;12.00;57.11;102100.00;4982356;28;20068;-76
2023/08/16 05:00:23;;;;;;;2.17;1.77;;;;;;;12.01;57.03;102096.50;4978961;28;20037;-76
2023/08/16 05:02:57;;;;;;;3.58;2.00;;;;;;;11.91;56.89;102103.75;4984052;28;20037;-76
2023/08/16 05:05:24;;;;;;;1.92;1.63;;;;;;;11.86;56.99;102109.09;4961747;28;20128;-76
2023/08/16 05:07:49;;;;;;;2.88;1.92;;;;;;;11.79;57.17;102102.28;4993105;28;20453;-76
2023/08/16 05:10:15;;;;;;;3.08;1.98;;;;;;;11.80;57.25;102104.03;4994991;28;20030;-76
2023/08/16 05:12:40;;;;;;;2.78;2.08;;;;;;;11.96;57.33;102106.25;4975118;28;20034;-76
2023/08/16 05:15:08;;;;;;;4.55;2.63;;;;;;;12.17;57.45;102113.53;4978080;28;20054;-76
2023/08/16 05:17:33;;;;;;;3.15;2.17;;;;;;;12.24;56.71;102117.69;4976385;28;20115;-76
2023/08/16 05:19:59;;;;;;;2.80;2.33;;;;;;;12.75;57.60;102116.28;4979744;28;20065;-76
2023/08/16 05:22:25;;;;;;;4.32;2.97;;;;;;;13.05;55.90;102116.31;4979925;28;20032;-77
2023/08/16 05:24:50;;;;;;;3.83;3.03;;;;;;;13.29;55.93;102112.03;4993212;28;20661;-76
2023/08/16 05:27:16;;;;;;;2.80;2.05;;;;;;;13.83;55.66;102110.28;4980099;28;20045;-79
2023/08/16 05:29:42;;;;;;;2.72;2.13;;;;;;;14.96;53.48;102107.94;4980840;28;20381;-77
2023/08/16 05:32:08;;;;;;;3.70;2.38;;;;;;;15.33;51.81;102103.91;4978050;28;20041;-76
2023/08/16 05:34:33;;;;;;;6.13;3.28;;;;;;;15.47;51.28;102109.44;4959138;28;20045;-77
2023/08/16 05:36:59;;;;;;;3.65;3.13;;;;;;;16.82;48.30;102106.19;4979471;28;20031;-77
2023/08/16 05:39:25;;;;;;;4.15;2.92;;;;;;;18.88;43.65;102103.63;4993385;28;20053;-75
2023/08/16 05:41:51;;;;;;;3.78;2.22;;;;;;;20.56;41.04;102106.13;4977843;28;20030;-76
2023/08/16 05:44:16;;;;;;;2.47;2.13;;;;;;;21.59;37.35;102105.63;4981958;28;20080;-75
2023/08/16 05:46:42;;;;;;;4.65;1.80;;;;;;;22.49;35.09;102109.13;4998545;28;20033;-77
2023/08/16 05:49:08;;;;;;;3.17;1.65;;;;;;;23.34;34.35;102113.66;4994008;28;20495;-75
2023/08/16 05:51:33;;;;;;;4.35;2.35;;;;;;;23.81;33.57;102109.19;4977604;28;20033;-76
2023/08/16 05:53:59;;;;;;;3.83;2.42;;;;;;;24.35;31.92;102113.03;4997307;28;20116;-75
2023/08/16 05:56:24;;;;;;;1.40;1.13;;;;;;;24.76;30.93;102114.19;4978658;28;20038;-76
2023/08/16 05:58:50;;;;;;;4.43;1.60;;;;;;;25.25;30.66;102121.72;4969688;28;20101;-77
2023/08/16 06:01:15;;;;;;;3.08;1.70;;;;;;;26.15;29.28;102111.47;4977741;28;20037;-76
2023/08/16 06:03:41;;;;;;;4.00;1.30;;;;;;;26.19;29.58;102119.09;5001805;28;20057;-76
2023/08/16 06:06:06;;;;;;;4.50;0.88;;;;;;;26.29;29.39;102114.66;4995450;28;20037;-77
2023/08/16 06:08:32;;;;;;;2.67;0.50;;;;;;;27.10;28.97;102122.63;4978348;28;20048;-76
2023/08/16 06:11:01;;;;;;;2.90;1.00;;;;;;;28.05;26.78;102123.59;4983720;28;20049;-76
2023/08/16 06:13:27;;;;;;;1.40;0.93;;;;;;;28.66;26.52;102124.06;4991633;28;20054;-76
2023/08/16 06:15:52;;;;;;;2.85;0.70;;;;;;;29.26;24.99;102126.16;4986060;28;21010;-77
2023/08/16 06:18:18;;;;;;;2.65;0.85;;;;;;;29.20;26.18;102133.03;4993305;28;20038;-76
2023/08/16 06:20:43;;;;;;;2.95;0.60;;;;;;;29.67;25.11;102129.22;4998034;28;20119;-75
2023/08/16 06:23:10;;;;;;;4.35;1.00;;;;;;;29.05;25.39;102135.38;4997383;28;20046;-77
2023/08/16 06:25:36;;;;;;;1.92;0.88;;;;;;;29.06;25.48;102141.59;4967272;28;20040;-76
2023/08/16 06:28:03;;;;;;;1.70;0.73;;;;;;;28.47;26.95;102135.75;4965496;28;20042;-76
2023/08/16 06:30:28;;;;;;;1.85;0.57;;;;;;;28.08;28.27;102138.59;4993299;28;20038;-75
2023/08/16 06:32:54;;;;;;;1.83;0.82;;;;;;;28.61;25.38;102142.47;4992790;28;20354;-75
2023/08/16 06:35:20;;;;;;;1.73;0.73;;;;;;;27.82;27.67;102141.91;4979243;28;20030;-77
2023/08/16 06:37:46;;;;;;;0.80;0.25;;;;;;;28.73;27.03;102149.38;4979746;28;20025;-76
2023/08/16 06:40:12;;;;;;;1.45;0.40;;;;;;;29.97;24.52;102147.59;4982400;28;20030;-76
2023/08/16 06:42:39;;;;;;;1.65;0.65;;;;;;;30.43;24.15;102159.97;4993645;28;20044;-77
2023/08/16 06:45:06;;;;;;;1.60;0.40;;;;;;;31.61;23.14;102158.84;4996307;28;20056;-76
2023/08/16 06:47:32;;;;;;;0.68;0.20;;;;;;;32.56;21.54;102157.22;4977352;28;20030;-76
2023/08/16 06:49:57;;;;;;;3.13;0.73;;;;;;;30.64;23.66;102165.78;4982789;28;20033;-75
2023/08/16 06:52:23;;;;;;;1.95;0.20;;;;;;;30.38;23.44;102165.84;4993412;28;20925;-77
2023/08/16 06:54:48;;;;;;;1.10;0.22;;;;;;;31.23;22.44;102159.50;4980347;28;20042;-76
2023/08/16 06:57:14;;;;;;;4.20;0.20;;;;;;;29.91;24.33;102169.78;4985943;28;20036;-76
2023/08/16 06:59:40;;;;;;;4.70;0.20;;;;;;;29.93;23.51;102161.53;4992784;28;20050;-77
2023/08/16 07:02:07;;;;;;;3.38;0.30;;;;;;;30.91;22.82;102161.13;4985009;28;20100;-75
2023/08/16 07:04:33;;;;;;;1.38;0.25;;;;;;;30.59;24.07;102157.34;4959133;28;20042;-75
2023/08/16 07:06:59;;;;;;;1.98;0.63;;;;;;;30.01;24.33;102163.44;4977338;28;20128;-78
2023/08/16 07:09:24;;;;;;;1.67;0.40;;;;;;;28.44;24.45;102162.94;4993523;28;20085;-77
2023/08/16 07:11:50;;;;;;;6.05;0.50;;;;;;;26.10;28.26;102162.78;4977056;28;20036;-76
2023/08/16 07:14:15;;;;;;;2.83;0.40;;;;;;;24.65;30.64;102166.69;4983796;28;20550;-76
2023/08/16 07:16:41;;;;;;;3.03;0.30;;;;;;;23.60;31.88;102165.06;4992640;28;20582;-76
2023/08/16 07:19:08;;;;;;;4.40;0.30;;;;;;;22.12;35.10;102174.81;4958057;28;20423;-77
2023/08/16 07:21:35;;;;;;;1.40;0.40;;;;;;;21.48;35.84;102179.97;4994112;28;20041;-76
2023/08/16 07:24:01;;;;;;;2.55;0.20;;;;;;;21.34;36.70;102179.03;4979223;28;20042;-76
2023/08/16 07:26:27;;;;;;;5.68;0.40;;;;;;;20.71;37.08;102190.19;4993719;28;20041;-76
2023/08/16 07:28:52;;;;;;;3.20;0.13;;;;;;;20.29;38.19;102187.41;4995735;28;20133;-77
2023/08/16 07:31:18;;;;;;;2.72;0.20;;;;;;;20.43;38.42;102191.03;4980236;28;20029;-76
2023/08/16 07:33:43;;;;;;;1.27;0.10;;;;;;;21.91;37.28;102193.06;4993286;28;20038;-77
2023/08/16 07:36:09;;;;;;;2.70;0.88;;;;;;;22.47;34.15;102191.00;4980353;28;20592;-76
2023/08/16 07:38:34;;;;;;;1.20;0.20;;;;;;;23.49;32.80;102195.22;4980202;28;20046;-76
2023/08/16 07:41:00;;;;;;;2.92;0.20;;;;;;;25.03;30.44;102189.50;4980332;28;20052;-76
2023/08/16 07:43:29;;;;;;;1.10;0.10;;;;;;;28.63;25.59;102194.28;4992630;28;20050;-77
2023/08/16 07:45:54;;;;;;;1.30;0.10;;;;;;;28.80;25.50;102189.97;4980826;28;20033;-76
2023/08/16 07:48:20;;;;;;;4.55;0.20;;;;;;;26.34;27.76;102202.69;4975655;28;20832;-76
2023/08/16 07:50:46;;;;;;;3.80;0.25;;;;;;;27.84;25.57;102192.81;4992481;28;20042;-77
2023/08/16 07:53:12;;;;;;;1.15;0.52;;;;;;;28.89;24.23;102199.81;4995838;28;20045;-77
2023/08/16 07:55:38;;;;;;;2.92;0.30;;;;;;;29.93;23.99;102205.50;4990548;28;20030;-74
2023/08/16 07:58:03;;;;;;;2.25;0.30;;;;;;;29.05;23.60;102202.66;4981200;28;20084;-75
2023/08/16 08:00:29;;;;;;;5.50;0.60;;;;;;;27.03;26.94;102210.00;4975112;28;20033;-75
2023/08/16 08:02:55;;;;;;;3.00;0.20;;;;;;;26.39;26.66;102215.69;4976064;28;20076;-75
2023/08/16 08:05:22;;;;;;;2.83;0.32;;;;;;;27.68;25.57;102210.38;4977211;28;20064;-76
2023/08/16 08:07:48;;;;;;;1.90;0.20;;;;;;;28.96;24.80;102219.72;4973927;28;20073;-74
2023/08/16 08:10:15;;;;;;;2.55;0.30;;;;;;;28.70;23.79;102207.00;4978655;28;20091;-77
2023/08/16 08:12:47;;;;;;;1.48;0.17;;;;;;;30.86;21.59;102212.91;4990382;28;20030;-75
2023/08/16 08:15:13;;;;;;;2.13;0.10;;;;;;;32.09;20.47;102209.44;4985005;28;20067;-75
2023/08/16 08:17:39;;;;;;;2.03;0.20;;;;;;;32.70;19.00;102207.03;4977127;28;20038;-76
2023/08/16 08:20:06;;;;;;;4.80;0.20;;;;;;;32.14;20.57;102215.16;4995473;28;20033;-77
2023/08/16 08:22:31;;;;;;;1.60;0.28;;;;;;;30.67;21.17;102216.72;4976524;28;20061;-77
2023/08/16 08:24:57;;;;;;;3.10;0.38;;;;;;;29.90;22.95;102224.66;4991462;28;20816;-75
2023/08/16 08:27:22;;;;;;;1.23;0.20;;;;;;;30.11;22.48;102226.19;4993245;28;20060;-76
2023/08/16 08:29:48;;;;;;;4.78;0.15;;;;;;;32.01;20.32;102216.56;4989742;28;20503;-76
2023/08/16 08:32:13;;;;;;;2.17;0.20;;;;;;;31.26;20.79;102229.38;4980887;28;20125;-76
2023/08/16 08:34:39;;;;;;;3.55;0.30;;;;;;;30.34;22.04;102223.81;4975412;28;20153;-77
2023/08/16 08:37:05;;;;;;;1.77;0.30;;;;;;;30.41;21.89;102240.19;4995815;28;20064;-77
2023/08/16 08:39:32;;;;;;;4.32;0.17;;;;;;;27.67;25.18;102240.03;4990163;28;20060;-77
2023/08/16 08:41:58;;;;;;;2.95;0.20;;;;;;;25.92;27.98;102247.38;4991279;28;20026;-77
2023/08/16 08:44:24;;;;;;;1.88;0.22;;;;;;;24.90;29.27;102236.91;4973453;28;20041;-76
2023/08/16 08:46:50;;;;;;;2.50;0.20;;;;;;;24.56;30.33;102246.78;4996710;28;20057;-76
2023/08/16 08:49:17;;;;;;;2.83;0.17;;;;;;;24.09;30.39;102252.13;4989977;28;20069;-76
2023/08/16 08:51:43;;;;;;;6.70;0.93;;;;;;;23.26;32.05;102252.06;4980462;28;20057;-75
2023/08/16 08:54:08;;;;;;;0.73;0.10;;;;;;;22.80;32.59;102251.72;4979150;28;20412;-77
2023/08/16 08:56:34;;;;;;;1.55;0.30;;;;;;;23.64;31.63;102257.28;4979932;28;20021;-76
2023/08/16 08:59:01;;;;;;;1.55;0.20;;;;;;;25.47;28.33;102259.94;4985771;28;20589;-77
2023/08/16 09:01:27;;;;;;;4.72;0.20;;;;;;;26.29;28.30;102259.38;4992990;28;20077;-76
2023/08/16 09:03:56;;;;;;;2.22;0.20;;;;;;;26.07;26.53;102256.81;4975334;28;20118;-77
2023/08/16 09:06:21;;;;;;;2.60;0.17;;;;;;;26.20;27.26;102249.44;4996229;28;20078;-77
2023/08/16 09:08:48;;;;;;;1.92;0.47;;;;;;;25.00;29.17;102258.47;4979199;28;20770;-76
2023/08/16 09:11:15;;;;;;;2.45;0.20;;;;;;;24.57;29.37;102256.47;4995345;28;20034;-77
2023/08/16 09:13:40;;;;;;;2.28;0.13;;;;;;;24.58;30.55;102255.53;4958467;28;20117;-76
2023/08/16 09:16:06;;;;;;;3.38;0.20;;;;;;;24.65;29.26;102256.75;4996134;28;20124;-76
2023/08/16 09:18:31;;;;;;;2.67;0.10;;;;;;;24.28;30.95;102253.38;4990736;28;20103;-76
2023/08/16 09:21:00;;;;;;;2.92;0.20;;;;;;;23.59;31.44;102257.63;4996388;28;20085;-76
2023/08/16 09:23:26;;;;;;;1.23;0.55;;;;;;;23.69;31.05;102255.09;4978070;28;20408;-76
2023/08/16 09:25:52;;;;;;;3.88;0.20;;;;;;;23.74;31.37;102258.28;4980307;28;20022;-76
2023/08/16 09:28:18;;;;;;;2.50;0.10;;;;;;;23.09;32.46;102263.94;4992151;28;20489;-76
2023/08/16 09:30:44;;;;;;;3.53;0.28;;;;;;;22.77;31.89;102259.94;4982251;28;20056;-76
2023/08/16 09:33:14;;;;;;;2.13;0.17;;;;;;;22.32;34.10;102266.66;4983457;28;20855;-76
2023/08/16 09:35:48;;;;;;;2.78;0.38;;;;;;;22.44;32.10;102260.44;4976115;28;20034;-77
2023/08/16 09:38:15;;;;;;;1.17;0.20;;;;;;;22.75;32.75;102269.00;4965729;28;20481;-75
2023/08/16 09:40:51;;;;;;;0.95;0.20;;;;;;;22.91;33.22;102269.63;4995700;28;20029;-75
2023/08/16 09:43:18;;;;;;;4.15;0.30;;;;;;;22.77;33.63;102277.75;4982231;28;20049;-77
2023/08/16 09:45:47;;;;;;;2.65;0.30;;;;;;;22.15;33.75;102271.28;4982092;28;20038;-76
2023/08/16 09:48:13;;;;;;;1.33;0.20;;;;;;;22.07;33.73;102270.06;4987390;28;20451;-76
2023/08/16 09:50:38;;;;;;;0.73;0.13;;;;;;;21.89;34.39;102264.16;4981632;28;20025;-76
2023/08/16 09:53:05;;;;;;;2.88;0.10;;;;;;;22.40;33.19;102264.28;4983058;28;20997;-78
2023/08/16 09:55:35;;;;;;;1.48;0.10;;;;;;;22.66;33.10;102256.31;4980029;28;20165;-76
2023/08/16 09:58:01;;;;;;;2.42;0.13;;;;;;;23.65;34.24;102248.28;4962001;28;20104;-76
2023/08/16 10:00:28;;;;;;;0.52;0.10;;;;;;;24.82;27.96;102252.75;4977377;28;21102;-78
2023/08/16 10:02:56;;;;;;;2.00;0.10;;;;;;;24.37;27.67;102249.97;4986937;28;20046;-76
2023/08/16 10:05:21;;;;;;;1.38;0.10;;;;;;;23.45;29.98;102251.59;4998982;28;20092;-76
2023/08/16 10:07:49;;;;;;;2.10;1.05;;;;;;;23.85;29.75;102248.63;4980415;28;21154;-76
2023/08/16 10:10:16;;;;;;;3.10;0.20;;;;;;;24.81;29.90;102245.69;4982141;28;20559;-75
2023/08/16 10:12:42;;;;;;;2.05;0.10;;;;;;;25.00;29.02;102243.25;4994938;28;20030;-76
2023/08/16 10:15:09;;;;;;;1.33;0.10;;;;;;;25.31;27.13;102246.13;4962500;28;20042;-76
2023/08/16 10:17:39;;;;;;;1.92;0.40;;;;;;;26.43;26.38;102243.91;4976996;28;20649;-75
2023/08/16 10:20:11;;;;;;;1.70;0.37;;;;;;;26.64;26.08;102241.22;4979391;28;20538;-77
2023/08/16 10:22:42;;;;;;;0.60;0.10;;;;;;;26.23;26.13;102242.97;4973299;28;20049;-77
2023/08/16 10:25:13;;;;;;;3.30;0.10;;;;;;;25.43;27.57;102253.13;4981376;28;20034;-77
2023/08/16 10:27:43;;;;;;;2.38;0.10;;;;;;;25.82;26.64;102245.47;4974198;28;20119;-76
2023/08/16 10:30:14;;;;;;;2.20;0.55;;;;;;;25.44;28.55;102238.78;4994717;28;20412;-75
2023/08/16 10:32:44;;;;;;;1.63;0.20;;;;;;;24.55;28.27;102240.59;4993276;28;20081;-77
2023/08/16 10:35:10;;;;;;;1.38;0.15;;;;;;;24.29;29.48;102253.25;4979347;28;20092;-75
2023/08/16 10:37:37;;;;;;;2.70;0.10;;;;;;;22.98;31.00;102249.56;4993780;28;20030;-76
2023/08/16 10:40:03;;;;;;;1.85;0.20;;;;;;;23.26;32.05;102246.72;4978798;28;20030;-77
2023/08/16 10:42:29;;;;;;;1.50;0.57;;;;;;;23.95;30.50;102244.34;4992996;28;20052;-75
2023/08/16 10:44:54;;;;;;;1.77;0.13;;;;;;;24.57;29.75;102244.00;4978258;28;20032;-74
2023/08/16 10:47:30;;;;;;;1.95;0.10;;;;;;;24.84;29.89;102243.63;4981200;28;20044;-75
2023/08/16 10:49:59;;;;;;;1.13;0.05;;;;;;;26.04;26.67;102243.63;4979529;28;20042;-76
2023/08/16 10:52:32;;;;;;;1.45;0.20;;;;;;;25.83;27.21;102252.53;4994298;28;20045;-76
2023/08/16 10:55:01;;;;;;;1.10;0.20;;;;;;;25.80;27.61;102252.78;4982806;28;20077;-77
2023/08/16 10:57:26;;;;;;;4.40;0.70;;;;;;;24.98;28.86;102245.22;4997064;28;20302;-75
2023/08/16 11:00:05;;;;;;;2.25;0.10;;;;;;;24.04;31.41;102243.63;4975302;28;20048;-75
2023/08/16 11:02:33;;;;;;;3.45;0.32;;;;;;;24.38;33.68;102246.34;4982615;28;20041;-76
2023/08/16 11:05:00;;;;;;;1.25;0.10;;;;;;;24.60;29.71;102246.41;4978757;28;20440;-77
2023/08/16 11:07:25;;;;;;;4.25;0.25;;;;;;;24.50;29.85;102240.06;5015331;28;20057;-76
2023/08/16 11:09:51;;;;;;;1.33;0.20;;;;;;;24.36;29.79;102240.28;4989689;28;20425;-76
2023/08/16 11:12:17;;;;;;;0.60;0.20;;;;;;;24.63;30.54;102250.66;4998626;28;20590;-76
2023/08/16 11:14:45;;;;;;;0.98;0.10;;;;;;;25.25;28.81;102243.94;4985318;28;20156;-76
2023/08/16 11:17:17;;;;;;;1.67;0.10;;;;;;;25.38;28.80;102241.13;4985386;28;20037;-77
2023/08/16 11:19:43;;;;;;;1.33;0.20;;;;;;;25.09;29.51;102232.81;4979184;28;20103;-77
2023/08/16 11:22:10;;;;;;;3.08;0.30;;;;;;;25.80;28.20;102235.84;4997146;28;20045;-77